DLH5RM LJLJ-EDDF
Flight info
| Callsign | DLH5RM |
|---|---|
| Flight time | N/A |
| Altitude | 34000 |
| Route | LUPIX2E LUPIX DCT EBITI DCT GIMIX DCT RASTA DCT SIMBA DCT AKINI T161 DEBHI DEBHI1B |
| Aircraft | A21N/M-SDE2E3FGIJ1LORWXYZ/HB1 |
Departure
| Time | 2026-04-24 17:04 |
|---|---|
| Airport | Ljubljana Jože Pučnik Airport (LJLJ) |
Arrival
| Time | N/A |
|---|---|
| Airport | Frankfurt Main Airport (EDDF) |
| Time | Latitude | Longitude | Altitude | Speed | Heading |
|---|---|---|---|---|---|
| 2026-04-24 16:27 | 46.23000 | 14.45463 | 1264 ft | 0 kts | 37° |
| 2026-04-24 16:50 | 46.22994 | 14.45457 | 1271 ft | 4 kts | 35° |
| 2026-04-24 16:50 | 46.22965 | 14.45436 | 1268 ft | 4 kts | 9° |
| 2026-04-24 16:50 | 46.22941 | 14.45439 | 1264 ft | 4 kts | 327° |
| 2026-04-24 16:50 | 46.22932 | 14.45449 | 1264 ft | 0 kts | 308° |
| 2026-04-24 16:56 | 46.22934 | 14.45445 | 1264 ft | 2 kts | 308° |
| 2026-04-24 16:56 | 46.22949 | 14.45419 | 1264 ft | 5 kts | 308° |
| 2026-04-24 16:56 | 46.22974 | 14.45368 | 1266 ft | 8 kts | 305° |
| 2026-04-24 16:57 | 46.23011 | 14.45294 | 1264 ft | 10 kts | 306° |
| 2026-04-24 16:57 | 46.23047 | 14.45220 | 1269 ft | 7 kts | 289° |
| 2026-04-24 16:57 | 46.23034 | 14.45181 | 1264 ft | 5 kts | 217° |
| 2026-04-24 16:57 | 46.22996 | 14.45142 | 1266 ft | 8 kts | 215° |
| 2026-04-24 16:58 | 46.22964 | 14.45090 | 1267 ft | 8 kts | 259° |
| 2026-04-24 16:58 | 46.22990 | 14.45007 | 1273 ft | 11 kts | 307° |
| 2026-04-24 16:58 | 46.23039 | 14.44913 | 1270 ft | 8 kts | 307° |
| 2026-04-24 16:58 | 46.23074 | 14.44845 | 1274 ft | 9 kts | 306° |
| 2026-04-24 16:59 | 46.23115 | 14.44766 | 1271 ft | 11 kts | 306° |
| 2026-04-24 16:59 | 46.23162 | 14.44672 | 1275 ft | 13 kts | 306° |
| 2026-04-24 16:59 | 46.23239 | 14.44522 | 1279 ft | 8 kts | 306° |
| 2026-04-24 17:00 | 46.23275 | 14.44450 | 1281 ft | 10 kts | 306° |
| 2026-04-24 17:00 | 46.23381 | 14.44243 | 1288 ft | 10 kts | 306° |
| 2026-04-24 17:00 | 46.23401 | 14.44180 | 1290 ft | 8 kts | 274° |
| 2026-04-24 17:01 | 46.23395 | 14.44144 | 1291 ft | 0 kts | 238° |
| 2026-04-24 17:02 | 46.23391 | 14.44134 | 1291 ft | 3 kts | 238° |
| 2026-04-24 17:02 | 46.23364 | 14.44092 | 1291 ft | 8 kts | 213° |
| 2026-04-24 17:02 | 46.23307 | 14.44075 | 1291 ft | 9 kts | 172° |
| 2026-04-24 17:02 | 46.23243 | 14.44106 | 1289 ft | 10 kts | 151° |
| 2026-04-24 17:03 | 46.23076 | 14.44377 | 1280 ft | 49 kts | 127° |
| 2026-04-24 17:03 | 46.22721 | 14.45075 | 1265 ft | 121 kts | 127° |
| 2026-04-24 17:03 | 46.22125 | 14.46239 | 1251 ft | 167 kts | 127° |
| 2026-04-24 17:04 | 46.21367 | 14.47680 | 1529 ft | 181 kts | 131° |
| 2026-04-24 17:04 | 46.19861 | 14.50634 | 2620 ft | 190 kts | 130° |
| 2026-04-24 17:04 | 46.19041 | 14.52248 | 3045 ft | 209 kts | 130° |
| 2026-04-24 17:05 | 46.18150 | 14.53986 | 3579 ft | 222 kts | 129° |
| 2026-04-24 17:05 | 46.17201 | 14.55833 | 4064 ft | 239 kts | 128° |
| 2026-04-24 17:05 | 46.15057 | 14.59996 | 5095 ft | 273 kts | 127° |
| 2026-04-24 17:06 | 46.13929 | 14.62182 | 5904 ft | 277 kts | 126° |
| 2026-04-24 17:06 | 46.11608 | 14.66704 | 7456 ft | 285 kts | 125° |
| 2026-04-24 17:06 | 46.10419 | 14.69015 | 8226 ft | 290 kts | 124° |
| 2026-04-24 17:07 | 46.09621 | 14.70563 | 8702 ft | 292 kts | 124° |
| 2026-04-24 17:07 | 46.07974 | 14.73757 | 9640 ft | 301 kts | 122° |
| 2026-04-24 17:07 | 46.06556 | 14.79451 | 10493 ft | 317 kts | 88° |
| 2026-04-24 17:08 | 46.07722 | 14.85536 | 11492 ft | 322 kts | 51° |
| 2026-04-24 17:08 | 46.09294 | 14.87734 | 12130 ft | 321 kts | 31° |
| 2026-04-24 17:08 | 46.11337 | 14.89003 | 12773 ft | 323 kts | 11° |
| 2026-04-24 17:09 | 46.15746 | 14.88105 | 14002 ft | 333 kts | 330° |
| 2026-04-24 17:09 | 46.19483 | 14.84054 | 15253 ft | 340 kts | 323° |
| 2026-04-24 17:10 | 46.21356 | 14.81932 | 15881 ft | 343 kts | 323° |
| 2026-04-24 17:10 | 46.27114 | 14.75627 | 17779 ft | 353 kts | 324° |
| 2026-04-24 17:11 | 46.33077 | 14.69117 | 19495 ft | 362 kts | 324° |
| 2026-04-24 17:12 | 46.43307 | 14.57890 | 22047 ft | 378 kts | 324° |